createdAt,value
2016-07-29T00:00:54.678Z,968.23
2016-07-29T00:01:54.683Z,968.25
2016-07-29T00:02:54.682Z,968.25
2016-07-29T00:03:54.687Z,968.22
2016-07-29T00:04:54.686Z,968.2
2016-07-29T00:05:54.687Z,968.26
2016-07-29T00:06:54.691Z,968.27
2016-07-29T00:07:54.690Z,968.25
2016-07-29T00:09:13.902Z,968.25
2016-07-29T00:09:54.695Z,968.26
2016-07-29T00:10:54.694Z,968.26
2016-07-29T00:11:54.694Z,968.27
2016-07-29T00:12:54.698Z,968.26
2016-07-29T00:13:54.697Z,968.25
2016-07-29T00:14:54.699Z,968.25
2016-07-29T00:15:54.710Z,968.27
2016-07-29T00:17:54.702Z,968.22
2016-07-29T00:19:13.914Z,968.23
2016-07-29T00:20:54.710Z,968.24
2016-07-29T00:21:54.711Z,968.24
2016-07-29T00:22:54.710Z,968.22
2016-07-29T00:23:54.711Z,968.22
2016-07-29T00:24:54.715Z,968.2
2016-07-29T00:25:54.714Z,968.22
2016-07-29T00:26:54.715Z,968.22
2016-07-29T00:27:54.718Z,968.23
2016-07-29T00:29:04.990Z,968.26
2016-07-29T00:29:54.718Z,968.25
2016-07-29T00:30:54.722Z,968.22
2016-07-29T00:31:54.730Z,968.24
2016-07-29T00:32:54.722Z,968.26
2016-07-29T00:33:54.728Z,968.25
2016-07-29T00:34:54.734Z,968.25
2016-07-29T00:35:54.727Z,968.25
2016-07-29T00:36:54.726Z,968.19
2016-07-29T00:37:54.730Z,968.16
2016-07-29T00:38:54.730Z,968.17
2016-07-29T00:39:54.730Z,968.16
2016-07-29T00:40:54.738Z,968.17
2016-07-29T00:41:54.741Z,968.15
2016-07-29T00:42:54.739Z,968.18
2016-07-29T00:43:54.738Z,968.15
2016-07-29T00:45:54.739Z,968.12
2016-07-29T00:47:54.713Z,968.12
2016-07-29T00:48:54.712Z,968.13
2016-07-29T00:49:54.717Z,968.1
2016-07-29T00:50:54.716Z,968.1
2016-07-29T00:51:54.716Z,968.09
2016-07-29T00:52:54.721Z,968.09
2016-07-29T00:53:54.719Z,968.08
2016-07-29T00:54:54.720Z,968
2016-07-29T00:55:54.721Z,968.02
2016-07-29T00:56:54.724Z,967.99
2016-07-29T00:57:54.725Z,968.05
2016-07-29T00:58:54.725Z,968.02
2016-07-29T00:59:54.729Z,968.01
2016-07-29T01:00:54.729Z,967.99
2016-07-29T01:01:54.728Z,967.99
2016-07-29T01:02:54.733Z,968.02
2016-07-29T01:03:54.733Z,968.03
2016-07-29T01:04:54.734Z,968.08
2016-07-29T01:05:54.737Z,968.08
2016-07-29T01:06:54.737Z,968.01
2016-07-29T01:07:54.738Z,968.02
2016-07-29T01:08:54.737Z,968.05
2016-07-29T01:09:54.741Z,968.04
2016-07-29T01:10:54.741Z,968.07
2016-07-29T01:11:54.741Z,968.05
2016-07-29T01:12:54.745Z,968.08
2016-07-29T01:13:54.745Z,968.04
2016-07-29T01:14:54.745Z,968.06
2016-07-29T01:15:54.749Z,968.07
2016-07-29T01:16:54.749Z,968.09
2016-07-29T01:17:54.749Z,968.06
2016-07-29T01:18:54.749Z,968.07
2016-07-29T01:19:54.754Z,968.06
2016-07-29T01:20:54.753Z,968.08
2016-07-29T01:21:54.753Z,968.05
2016-07-29T01:22:54.757Z,968.07
2016-07-29T01:23:54.757Z,968.06
2016-07-29T01:24:54.758Z,968.09
2016-07-29T01:25:54.761Z,968.09
2016-07-29T01:26:54.762Z,968.09
2016-07-29T01:27:54.762Z,968.07
2016-07-29T01:28:54.762Z,968.07
2016-07-29T01:29:54.766Z,968.07
2016-07-29T01:30:54.766Z,968.06
2016-07-29T01:31:54.766Z,968.08
2016-07-29T01:32:54.770Z,968.06
2016-07-29T01:33:54.770Z,968.08
2016-07-29T01:34:54.770Z,968.08
2016-07-29T01:35:54.770Z,968.06
2016-07-29T01:36:54.774Z,968.02
2016-07-29T01:37:54.783Z,968.07
2016-07-29T01:38:54.774Z,968.06
2016-07-29T01:39:54.778Z,968.09
2016-07-29T01:40:54.778Z,968.08
2016-07-29T01:41:54.778Z,968.08
2016-07-29T01:42:54.781Z,968.07
2016-07-29T01:43:54.783Z,968.09
2016-07-29T01:44:54.782Z,968.09
2016-07-29T01:45:54.782Z,968.13
2016-07-29T01:46:54.786Z,968.1
2016-07-29T01:47:54.786Z,968.12
2016-07-29T01:48:54.786Z,968.15
2016-07-29T01:49:54.786Z,968.11
2016-07-29T01:50:54.791Z,968.16
2016-07-29T01:51:54.789Z,968.2
2016-07-29T01:52:54.791Z,968.19
2016-07-29T01:53:54.795Z,968.15
2016-07-29T01:54:54.795Z,968.15
2016-07-29T01:55:54.794Z,968.17
2016-07-29T01:56:54.794Z,968.18
2016-07-29T01:57:54.798Z,968.2
2016-07-29T01:58:54.799Z,968.19
2016-07-29T01:59:54.798Z,968.15
2016-07-29T02:00:54.803Z,968.15
2016-07-29T02:01:54.808Z,968.15
2016-07-29T02:02:54.802Z,968.15
2016-07-29T02:03:54.803Z,968.17
2016-07-29T02:04:54.807Z,968.16
2016-07-29T02:05:54.806Z,968.17
2016-07-29T02:06:54.806Z,968.2
2016-07-29T02:07:54.807Z,968.19
2016-07-29T02:08:54.811Z,968.22
2016-07-29T02:09:54.811Z,968.24
2016-07-29T02:10:54.810Z,968.22
2016-07-29T02:11:54.814Z,968.2
2016-07-29T02:12:54.815Z,968.19
2016-07-29T02:13:54.822Z,968.18
2016-07-29T02:14:54.822Z,968.17
2016-07-29T02:15:54.827Z,968.2
2016-07-29T02:16:54.826Z,968.2
2016-07-29T02:17:54.827Z,968.22
2016-07-29T02:18:54.826Z,968.24
2016-07-29T02:19:54.831Z,968.2
2016-07-29T02:20:54.830Z,968.23
2016-07-29T02:21:54.831Z,968.23
2016-07-29T02:22:54.830Z,968.2
2016-07-29T02:23:54.834Z,968.21
2016-07-29T02:24:54.835Z,968.24
2016-07-29T02:25:54.835Z,968.2
2016-07-29T02:26:54.836Z,968.2
2016-07-29T02:27:54.839Z,968.18
2016-07-29T02:28:54.840Z,968.15
2016-07-29T02:29:54.840Z,968.16
2016-07-29T02:30:54.844Z,968.14
2016-07-29T02:31:54.844Z,968.17
2016-07-29T02:32:54.844Z,968.2
2016-07-29T02:33:54.844Z,968.16
2016-07-29T02:34:54.848Z,968.16
2016-07-29T02:35:54.848Z,968.14
2016-07-29T02:36:54.847Z,968.14
2016-07-29T02:37:54.848Z,968.14
2016-07-29T02:38:54.852Z,968.15
2016-07-29T02:39:54.852Z,968.15
2016-07-29T02:40:54.858Z,968.18
2016-07-29T02:41:54.852Z,968.17
2016-07-29T02:42:54.856Z,968.13
2016-07-29T02:43:54.856Z,968.14
2016-07-29T02:44:54.856Z,968.13
2016-07-29T02:45:54.856Z,968.14
2016-07-29T02:46:54.909Z,968.15
2016-07-29T02:47:54.860Z,968.18
2016-07-29T02:48:54.861Z,968.22
2016-07-29T02:49:54.860Z,968.18
2016-07-29T02:50:54.867Z,968.18
2016-07-29T02:51:54.865Z,968.19
2016-07-29T02:52:54.864Z,968.16
2016-07-29T02:53:54.869Z,968.17
2016-07-29T02:54:54.869Z,968.17
2016-07-29T02:55:54.869Z,968.21
2016-07-29T02:56:54.867Z,968.19
2016-07-29T02:57:54.872Z,968.21
2016-07-29T02:58:54.873Z,968.22
2016-07-29T02:59:54.873Z,968.22
2016-07-29T03:00:54.873Z,968.23
2016-07-29T03:01:54.876Z,968.22
2016-07-29T03:02:54.877Z,968.21
2016-07-29T03:03:54.877Z,968.17
2016-07-29T03:04:54.877Z,968.21
2016-07-29T03:05:54.877Z,968.17
2016-07-29T03:06:54.881Z,968.14
2016-07-29T03:07:54.882Z,968.14
2016-07-29T03:08:54.881Z,968.16
2016-07-29T03:09:54.881Z,968.15
2016-07-29T03:10:54.885Z,968.14
2016-07-29T03:11:54.886Z,968.12
2016-07-29T03:12:54.885Z,968.13
2016-07-29T03:13:54.894Z,968.14
2016-07-29T03:14:54.889Z,968.14
2016-07-29T03:15:54.890Z,968.13
2016-07-29T03:16:54.889Z,968.13
2016-07-29T03:17:54.894Z,968.12
2016-07-29T03:18:54.894Z,968.12
2016-07-29T03:19:54.894Z,968.08
2016-07-29T03:20:54.899Z,968.09
2016-07-29T03:21:54.898Z,968.08
2016-07-29T03:22:54.898Z,968.12
2016-07-29T03:23:54.898Z,968.15
2016-07-29T03:24:54.898Z,968.14
2016-07-29T03:25:54.901Z,968.13
2016-07-29T03:26:54.902Z,968.12
2016-07-29T03:27:54.902Z,968.12
2016-07-29T03:28:54.902Z,968.15
2016-07-29T03:29:54.906Z,968.12
2016-07-29T03:30:54.905Z,968.15
2016-07-29T03:31:54.906Z,968.16
2016-07-29T03:32:54.906Z,968.16
2016-07-29T03:33:54.910Z,968.2
2016-07-29T03:34:54.910Z,968.19
2016-07-29T03:35:54.909Z,968.18
2016-07-29T03:36:54.910Z,968.17
2016-07-29T03:37:54.914Z,968.18
2016-07-29T03:38:54.914Z,968.2
2016-07-29T03:39:54.914Z,968.23
2016-07-29T03:40:54.913Z,968.23
2016-07-29T03:41:54.918Z,968.22
2016-07-29T03:42:54.918Z,968.17
2016-07-29T03:43:54.918Z,968.2
2016-07-29T03:44:54.918Z,968.21
2016-07-29T03:45:54.917Z,968.21
2016-07-29T03:46:54.922Z,968.19
2016-07-29T03:47:54.921Z,968.18
2016-07-29T03:48:54.922Z,968.18
2016-07-29T03:49:54.922Z,968.15
2016-07-29T03:50:54.927Z,968.15
2016-07-29T03:51:54.927Z,968.14
2016-07-29T03:52:54.926Z,968.14
2016-07-29T03:53:54.926Z,968.17
2016-07-29T03:54:54.929Z,968.17
2016-07-29T03:55:54.931Z,968.17
2016-07-29T03:56:54.931Z,968.2
2016-07-29T03:57:54.931Z,968.17
2016-07-29T03:58:54.935Z,968.2
2016-07-29T03:59:54.934Z,968.16
2016-07-29T04:00:54.935Z,968.17
2016-07-29T04:01:54.935Z,968.18
2016-07-29T04:02:54.938Z,968.17
2016-07-29T04:03:54.939Z,968.15
2016-07-29T04:04:54.938Z,968.17
2016-07-29T04:05:54.939Z,968.17
2016-07-29T04:06:54.942Z,968.16
2016-07-29T04:07:54.942Z,968.18
2016-07-29T04:08:54.942Z,968.2
2016-07-29T04:09:54.942Z,968.18
2016-07-29T04:10:54.946Z,968.25
2016-07-29T04:11:54.946Z,968.27
2016-07-29T04:12:54.946Z,968.24
2016-07-29T04:13:54.947Z,968.24
2016-07-29T04:14:54.951Z,968.23
2016-07-29T04:15:54.950Z,968.21
2016-07-29T04:16:54.951Z,968.19
2016-07-29T04:18:54.951Z,968.21
2016-07-29T04:19:54.955Z,968.21
2016-07-29T04:20:54.954Z,968.21
2016-07-29T04:21:54.955Z,968.16
2016-07-29T04:22:54.954Z,968.17
2016-07-29T04:23:54.959Z,968.15
2016-07-29T04:24:54.958Z,968.16
2016-07-29T04:25:54.960Z,968.16
2016-07-29T04:26:54.958Z,968.14
2016-07-29T04:27:54.963Z,968.15
2016-07-29T04:28:54.963Z,968.18
2016-07-29T04:29:54.963Z,968.15
2016-07-29T04:30:54.963Z,968.1
2016-07-29T04:31:54.967Z,968.14
2016-07-29T04:33:54.967Z,968.12
2016-07-29T04:34:54.966Z,968.15
2016-07-29T04:35:54.967Z,968.14
2016-07-29T04:36:54.971Z,968.13
2016-07-29T04:37:54.972Z,968.16
2016-07-29T04:38:54.971Z,968.15
2016-07-29T04:39:54.972Z,968.21
2016-07-29T04:40:54.970Z,968.18
2016-07-29T04:41:54.975Z,968.21
2016-07-29T04:42:54.976Z,968.22
2016-07-29T04:43:54.974Z,968.2
2016-07-29T04:44:54.975Z,968.2
2016-07-29T04:45:54.978Z,968.21
2016-07-29T04:46:54.979Z,968.23
2016-07-29T04:47:54.979Z,968.23
2016-07-29T04:48:54.983Z,968.22
2016-07-29T04:49:54.983Z,968.21
2016-07-29T04:50:54.987Z,968.19
2016-07-29T04:51:54.982Z,968.18
2016-07-29T04:52:54.987Z,968.19
2016-07-29T04:53:54.987Z,968.19
2016-07-29T04:54:54.986Z,968.21
2016-07-29T04:55:54.987Z,968.21
2016-07-29T04:56:54.987Z,968.26
2016-07-29T04:57:54.991Z,968.24
2016-07-29T04:58:54.991Z,968.21
2016-07-29T04:59:54.990Z,968.2
2016-07-29T05:00:54.992Z,968.2
2016-07-29T05:01:54.996Z,968.22
2016-07-29T05:02:54.996Z,968.2
2016-07-29T05:03:54.996Z,968.25
2016-07-29T05:04:54.995Z,968.23
2016-07-29T05:05:54.999Z,968.25
2016-07-29T05:06:54.999Z,968.25
2016-07-29T05:07:54.999Z,968.26
2016-07-29T05:08:54.999Z,968.26
2016-07-29T05:09:55.000Z,968.26
2016-07-29T05:10:55.000Z,968.26
2016-07-29T05:11:55.004Z,968.29
2016-07-29T05:12:55.003Z,968.27
2016-07-29T05:13:55.003Z,968.28
2016-07-29T05:14:55.004Z,968.29
2016-07-29T05:15:55.008Z,968.28
2016-07-29T05:16:55.008Z,968.33
2016-07-29T05:17:55.008Z,968.32
2016-07-29T05:18:55.008Z,968.33
2016-07-29T05:19:55.011Z,968.36
2016-07-29T05:20:55.012Z,968.33
2016-07-29T05:21:55.012Z,968.38
2016-07-29T05:22:55.011Z,968.36
2016-07-29T05:23:55.016Z,968.37
2016-07-29T05:24:55.016Z,968.4
2016-07-29T05:25:55.019Z,968.42
2016-07-29T05:26:55.022Z,968.42
2016-07-29T05:27:55.016Z,968.4
2016-07-29T05:28:55.016Z,968.39
2016-07-29T05:29:55.021Z,968.35
2016-07-29T05:30:55.020Z,968.36
2016-07-29T05:31:55.021Z,968.37
2016-07-29T05:32:55.020Z,968.34
2016-07-29T05:33:55.025Z,968.37
2016-07-29T05:34:55.025Z,968.36
2016-07-29T05:35:55.025Z,968.34
2016-07-29T05:36:55.025Z,968.38
2016-07-29T05:37:55.029Z,968.38
2016-07-29T05:38:55.032Z,968.42
2016-07-29T05:39:55.029Z,968.43
2016-07-29T05:40:55.032Z,968.43
2016-07-29T05:41:55.028Z,968.45
2016-07-29T05:42:55.033Z,968.47
2016-07-29T05:43:55.032Z,968.44
2016-07-29T05:44:55.033Z,968.46
2016-07-29T05:45:55.032Z,968.52
2016-07-29T05:46:55.033Z,968.51
2016-07-29T05:47:55.037Z,968.5
2016-07-29T05:48:55.037Z,968.52
2016-07-29T05:49:55.043Z,968.48
2016-07-29T05:50:55.037Z,968.49
2016-07-29T05:51:55.040Z,968.5
2016-07-29T05:52:55.041Z,968.49
2016-07-29T05:53:55.041Z,968.48
2016-07-29T05:54:55.041Z,968.49
2016-07-29T05:55:55.042Z,968.44
2016-07-29T05:56:55.045Z,968.44
2016-07-29T05:57:55.045Z,968.44
2016-07-29T05:58:55.045Z,968.44
2016-07-29T05:59:55.045Z,968.49
2016-07-29T06:00:55.050Z,968.47
2016-07-29T06:01:55.049Z,968.46
2016-07-29T06:02:55.051Z,968.45
2016-07-29T06:03:55.049Z,968.46
2016-07-29T06:04:55.050Z,968.44
2016-07-29T06:05:55.054Z,968.46
2016-07-29T06:06:55.053Z,968.48
2016-07-29T06:07:55.054Z,968.45
2016-07-29T06:08:55.060Z,968.46
2016-07-29T06:09:55.053Z,968.42
2016-07-29T06:10:55.058Z,968.44
2016-07-29T06:11:55.057Z,968.45
2016-07-29T06:12:55.058Z,968.47
2016-07-29T06:13:55.058Z,968.47
2016-07-29T06:14:55.062Z,968.48
2016-07-29T06:15:55.061Z,968.45
2016-07-29T06:16:55.062Z,968.44
2016-07-29T06:17:55.062Z,968.48
2016-07-29T06:18:55.064Z,968.45
2016-07-29T06:19:55.066Z,968.47
2016-07-29T06:20:55.066Z,968.44
2016-07-29T06:21:55.067Z,968.46
2016-07-29T06:22:55.066Z,968.47
2016-07-29T06:23:55.071Z,968.51
2016-07-29T06:24:55.323Z,968.52
2016-07-29T06:25:55.070Z,968.51
2016-07-29T06:26:55.070Z,968.53
2016-07-29T06:27:55.275Z,968.52
2016-07-29T06:28:55.074Z,968.52
2016-07-29T06:29:55.075Z,968.53
2016-07-29T06:30:55.074Z,968.54
2016-07-29T06:31:55.074Z,968.55
2016-07-29T06:32:55.078Z,968.53
2016-07-29T06:33:55.078Z,968.58
2016-07-29T06:34:55.078Z,968.57
2016-07-29T06:35:55.079Z,968.55
2016-07-29T06:36:55.082Z,968.54
2016-07-29T06:37:55.082Z,968.53
2016-07-29T06:38:55.083Z,968.53
2016-07-29T06:39:55.083Z,968.51
2016-07-29T06:40:55.082Z,968.51
2016-07-29T06:41:55.087Z,968.5
2016-07-29T06:42:55.087Z,968.48
2016-07-29T06:43:55.087Z,968.48
2016-07-29T06:44:55.087Z,968.48
2016-07-29T06:45:55.087Z,968.42
2016-07-29T06:46:55.139Z,968.43
2016-07-29T06:47:55.092Z,968.47
2016-07-29T06:48:55.091Z,968.43
2016-07-29T06:49:55.092Z,968.44
2016-07-29T06:50:55.095Z,968.41
2016-07-29T06:51:55.095Z,968.46
2016-07-29T06:52:55.097Z,968.4
2016-07-29T06:53:55.095Z,968.39
2016-07-29T06:54:55.101Z,968.39
2016-07-29T06:55:55.103Z,968.42
2016-07-29T06:56:55.100Z,968.39
2016-07-29T06:57:55.100Z,968.4
2016-07-29T06:58:55.104Z,968.44
2016-07-29T06:59:55.109Z,968.42
2016-07-29T07:00:55.104Z,968.46
2016-07-29T07:01:55.109Z,968.46
2016-07-29T07:02:55.108Z,968.44
2016-07-29T07:03:55.108Z,968.45
2016-07-29T07:04:55.108Z,968.39
2016-07-29T07:05:55.107Z,968.47
2016-07-29T07:06:55.108Z,968.44
2016-07-29T07:07:55.112Z,968.42
2016-07-29T07:08:55.112Z,968.44
2016-07-29T07:09:55.112Z,968.44
2016-07-29T07:10:55.112Z,968.43
2016-07-29T07:11:55.116Z,968.44
2016-07-29T07:12:55.116Z,968.47
2016-07-29T07:13:55.116Z,968.44
2016-07-29T07:14:55.120Z,968.45
2016-07-29T07:15:55.121Z,968.45
2016-07-29T07:16:55.121Z,968.44
2016-07-29T07:17:55.119Z,968.42
2016-07-29T07:18:55.125Z,968.43
2016-07-29T07:19:55.124Z,968.44
2016-07-29T07:20:55.125Z,968.43
2016-07-29T07:21:55.125Z,968.42
2016-07-29T07:22:55.129Z,968.42
2016-07-29T07:23:55.128Z,968.42
2016-07-29T07:24:55.129Z,968.45
2016-07-29T07:25:55.133Z,968.44
2016-07-29T07:26:55.132Z,968.46
2016-07-29T07:27:55.133Z,968.42
2016-07-29T07:28:55.133Z,968.49
2016-07-29T07:29:55.137Z,968.48
2016-07-29T07:30:55.137Z,968.48
2016-07-29T07:31:55.140Z,968.5
2016-07-29T07:32:55.141Z,968.45
2016-07-29T07:33:55.141Z,968.47
2016-07-29T07:34:55.140Z,968.48
2016-07-29T07:35:55.145Z,968.52
2016-07-29T07:36:55.144Z,968.49
2016-07-29T07:37:55.145Z,968.5
2016-07-29T07:38:55.149Z,968.52
2016-07-29T07:39:55.148Z,968.52
2016-07-29T07:40:55.148Z,968.51
2016-07-29T07:41:55.154Z,968.48
2016-07-29T07:42:55.154Z,968.45
2016-07-29T07:43:55.154Z,968.46
2016-07-29T07:44:55.203Z,968.41
2016-07-29T07:45:55.158Z,968.4
2016-07-29T07:46:55.157Z,968.38
2016-07-29T07:47:55.161Z,968.39
2016-07-29T07:48:55.162Z,968.42
2016-07-29T07:49:55.165Z,968.39
2016-07-29T07:50:55.166Z,968.37
2016-07-29T07:51:55.166Z,968.4
2016-07-29T07:52:55.169Z,968.38
2016-07-29T07:53:55.170Z,968.37
2016-07-29T07:54:55.170Z,968.33
2016-07-29T07:55:55.173Z,968.38
2016-07-29T07:56:55.197Z,968.37
2016-07-29T07:57:55.178Z,968.36
2016-07-29T07:58:55.177Z,968.36
2016-07-29T07:59:55.177Z,968.34
2016-07-29T08:00:55.182Z,968.34
2016-07-29T08:01:55.182Z,968.34
2016-07-29T08:02:55.186Z,968.29
2016-07-29T08:03:55.186Z,968.27
2016-07-29T08:04:55.186Z,968.25
2016-07-29T08:05:55.191Z,968.3
2016-07-29T08:06:55.196Z,968.31
2016-07-29T08:07:55.189Z,968.28
2016-07-29T08:08:55.194Z,968.33
2016-07-29T08:09:55.194Z,968.27
2016-07-29T08:10:55.197Z,968.32
2016-07-29T08:11:55.198Z,968.29
2016-07-29T08:12:55.198Z,968.26
2016-07-29T08:13:55.202Z,968.25
2016-07-29T08:14:55.202Z,968.3
2016-07-29T08:15:55.206Z,968.25
2016-07-29T08:16:55.206Z,968.24
2016-07-29T08:17:55.210Z,968.3
2016-07-29T08:18:55.209Z,968.2
2016-07-29T08:19:55.210Z,968.25
2016-07-29T08:20:55.213Z,968.22
2016-07-29T08:21:55.214Z,968.22
2016-07-29T08:22:55.218Z,968.21
2016-07-29T08:23:55.218Z,968.2
2016-07-29T08:24:55.218Z,968.18
2016-07-29T08:25:55.223Z,968.19
2016-07-29T08:26:55.225Z,968.17
2016-07-29T08:27:55.226Z,968.21
2016-07-29T08:28:55.226Z,968.15
2016-07-29T08:29:55.230Z,968.17
2016-07-29T08:30:55.230Z,968.19
2016-07-29T08:31:55.239Z,968.18
2016-07-29T08:32:55.235Z,968.16
2016-07-29T08:33:55.239Z,968.17
2016-07-29T08:34:55.238Z,968.18
2016-07-29T08:35:55.242Z,968.17
2016-07-29T08:36:55.242Z,968.18
2016-07-29T08:37:55.246Z,968.2
2016-07-29T08:38:55.249Z,968.19
2016-07-29T08:39:55.246Z,968.17
2016-07-29T08:40:55.251Z,968.17
2016-07-29T08:41:55.251Z,968.24
2016-07-29T08:42:55.254Z,968.18
2016-07-29T08:43:55.255Z,968.17
2016-07-29T08:44:55.258Z,968.21
2016-07-29T08:45:55.259Z,968.16
2016-07-29T08:46:55.263Z,968.14
2016-07-29T08:47:55.262Z,968.1
2016-07-29T08:48:55.267Z,968.13
2016-07-29T08:49:55.266Z,968.14
2016-07-29T08:50:55.270Z,968.15
2016-07-29T08:51:55.272Z,968.11
2016-07-29T08:52:55.275Z,968.06
2016-07-29T08:53:55.274Z,968.09
2016-07-29T08:54:55.280Z,968.11
2016-07-29T08:55:55.280Z,968.05
2016-07-29T08:56:55.287Z,968.08
2016-07-29T08:57:55.284Z,968.12
2016-07-29T08:58:55.290Z,968.08
2016-07-29T08:59:55.290Z,968.1
2016-07-29T09:00:55.291Z,968.12
2016-07-29T09:01:55.291Z,968.09
2016-07-29T09:02:55.295Z,968.06
2016-07-29T09:03:55.296Z,968.05
2016-07-29T09:04:55.299Z,968.01
2016-07-29T09:05:55.299Z,968.05
2016-07-29T09:06:55.304Z,968.02
2016-07-29T09:07:55.303Z,968.09
2016-07-29T09:08:55.307Z,968.05
2016-07-29T09:09:55.307Z,968.02
2016-07-29T09:10:55.311Z,968.07
2016-07-29T09:11:55.310Z,968.07
2016-07-29T09:12:55.317Z,968.06
2016-07-29T09:13:55.314Z,968.03
2016-07-29T09:14:55.319Z,967.99
2016-07-29T09:15:55.319Z,968.01
2016-07-29T09:16:55.323Z,967.98
2016-07-29T09:17:55.327Z,967.98
2016-07-29T09:19:55.327Z,968
2016-07-29T09:20:55.331Z,967.98
2016-07-29T09:21:55.335Z,967.97
2016-07-29T09:22:55.335Z,967.94
2016-07-29T09:23:55.339Z,967.96
2016-07-29T09:24:55.340Z,967.96
2016-07-29T09:25:55.344Z,967.96
2016-07-29T09:26:55.346Z,967.94
2016-07-29T09:27:55.349Z,967.94
2016-07-29T09:28:55.346Z,967.94
2016-07-29T09:29:55.352Z,967.98
2016-07-29T09:30:55.354Z,967.99
2016-07-29T09:31:55.356Z,967.97
2016-07-29T09:32:55.360Z,967.96
2016-07-29T09:34:55.364Z,967.92
2016-07-29T09:35:55.367Z,967.92
2016-07-29T09:36:55.368Z,967.9
2016-07-29T09:37:55.372Z,967.93
2016-07-29T09:38:55.372Z,967.9
2016-07-29T09:39:55.376Z,967.92
2016-07-29T09:40:55.376Z,967.94
2016-07-29T09:41:55.380Z,967.89
2016-07-29T09:42:55.380Z,967.88
2016-07-29T09:43:55.384Z,967.87
2016-07-29T09:44:55.384Z,967.86
2016-07-29T09:45:55.388Z,967.85
2016-07-29T09:46:55.393Z,967.87
2016-07-29T09:47:55.392Z,967.84
2016-07-29T09:49:55.398Z,967.82
2016-07-29T09:50:55.401Z,967.77
2016-07-29T09:51:55.399Z,967.83
2016-07-29T09:52:55.405Z,967.89
2016-07-29T09:53:55.408Z,967.82
2016-07-29T09:54:55.408Z,967.79
2016-07-29T09:55:55.412Z,967.85
2016-07-29T09:56:55.412Z,967.83
2016-07-29T09:57:55.417Z,967.85
2016-07-29T09:58:55.422Z,967.83
2016-07-29T09:59:55.420Z,967.78
2016-07-29T10:00:55.421Z,967.77
2016-07-29T10:01:55.424Z,967.8
2016-07-29T10:02:55.425Z,967.77
2016-07-29T10:03:55.429Z,967.75
2016-07-29T10:04:55.433Z,967.73
2016-07-29T10:05:55.432Z,967.72
2016-07-29T10:06:55.437Z,967.68
2016-07-29T10:07:55.437Z,967.67
2016-07-29T10:08:55.444Z,967.68
2016-07-29T10:09:55.440Z,967.65
2016-07-29T10:10:55.445Z,967.65
2016-07-29T10:11:55.448Z,967.68
2016-07-29T10:12:55.449Z,967.61
2016-07-29T10:13:55.453Z,967.64
2016-07-29T10:14:55.454Z,967.6
2016-07-29T10:15:55.457Z,967.63
2016-07-29T10:16:55.458Z,967.62
2016-07-29T10:17:55.461Z,967.62
2016-07-29T10:18:55.465Z,967.64
2016-07-29T10:19:55.465Z,967.6
2016-07-29T10:20:55.470Z,967.61
2016-07-29T10:21:55.470Z,967.62
2016-07-29T10:22:55.473Z,967.55
2016-07-29T10:23:55.478Z,967.57
2016-07-29T10:24:55.478Z,967.57
2016-07-29T10:25:55.482Z,967.56
2016-07-29T10:26:55.482Z,967.53
2016-07-29T10:27:55.486Z,967.56
2016-07-29T10:28:55.486Z,967.51
2016-07-29T10:29:55.489Z,967.55
2016-07-29T10:30:55.494Z,967.52
2016-07-29T10:31:55.493Z,967.53
2016-07-29T10:32:55.497Z,967.5
2016-07-29T10:33:55.498Z,967.49
2016-07-29T10:34:55.502Z,967.48
2016-07-29T10:35:55.502Z,967.47
2016-07-29T10:36:55.506Z,967.46
2016-07-29T10:37:55.510Z,967.46
2016-07-29T10:38:55.510Z,967.45
2016-07-29T10:39:55.514Z,967.47
2016-07-29T10:40:55.514Z,967.43
2016-07-29T10:41:55.518Z,967.4
2016-07-29T10:42:55.517Z,967.4
2016-07-29T10:43:55.522Z,967.37
2016-07-29T10:44:55.526Z,967.42
2016-07-29T10:45:55.526Z,967.37
2016-07-29T10:46:55.531Z,967.42
2016-07-29T10:47:55.529Z,967.4
2016-07-29T10:48:55.534Z,967.37
2016-07-29T10:49:55.534Z,967.38
2016-07-29T10:50:55.537Z,967.38
2016-07-29T10:51:55.543Z,967.39
2016-07-29T10:52:55.542Z,967.35
2016-07-29T10:53:55.547Z,967.34
2016-07-29T10:54:55.546Z,967.32
2016-07-29T10:55:55.550Z,967.34
2016-07-29T10:56:55.555Z,967.37
2016-07-29T10:57:55.554Z,967.35
2016-07-29T10:58:55.558Z,967.36
2016-07-29T10:59:55.559Z,967.36
2016-07-29T11:00:55.563Z,967.36
2016-07-29T11:01:55.563Z,967.31
2016-07-29T11:02:55.566Z,967.31
2016-07-29T11:03:55.571Z,967.33
2016-07-29T11:04:55.571Z,967.36
2016-07-29T11:05:55.575Z,967.36
2016-07-29T11:06:55.575Z,967.33
2016-07-29T11:07:55.580Z,967.3
2016-07-29T11:08:55.587Z,967.27
2016-07-29T11:09:55.584Z,967.28
2016-07-29T11:10:55.587Z,967.31
2016-07-29T11:11:55.588Z,967.33
2016-07-29T11:12:55.592Z,967.31
2016-07-29T11:13:55.596Z,967.3
2016-07-29T11:14:55.596Z,967.33
2016-07-29T11:15:55.600Z,967.25
2016-07-29T11:16:55.599Z,967.28
2016-07-29T11:17:55.604Z,967.27
2016-07-29T11:18:55.604Z,967.27
2016-07-29T11:19:55.608Z,967.23
2016-07-29T11:20:55.612Z,967.29
2016-07-29T11:21:55.613Z,967.27
2016-07-29T11:22:55.617Z,967.25
2016-07-29T11:23:55.616Z,967.22
2016-07-29T11:24:55.620Z,967.22
2016-07-29T11:25:55.624Z,967.2
2016-07-29T11:26:55.624Z,967.14
2016-07-29T11:27:55.629Z,967.21
2016-07-29T11:28:55.628Z,967.21
2016-07-29T11:29:55.633Z,967.22
2016-07-29T11:30:55.632Z,967.18
2016-07-29T11:31:55.636Z,967.16
2016-07-29T11:32:55.640Z,967.13
2016-07-29T11:33:55.641Z,967.13
2016-07-29T11:34:55.644Z,967.14
2016-07-29T11:35:55.649Z,967.16
2016-07-29T11:36:55.648Z,967.14
2016-07-29T11:37:55.653Z,967.17
2016-07-29T11:38:55.653Z,967.16
2016-07-29T11:39:55.656Z,967.1
2016-07-29T11:40:55.656Z,967.13
2016-07-29T11:41:55.660Z,967.13
2016-07-29T11:42:55.664Z,967.13
2016-07-29T11:43:55.669Z,967.11
2016-07-29T11:44:55.668Z,967.11
2016-07-29T11:45:55.669Z,967.05
2016-07-29T11:46:55.673Z,967.09
2016-07-29T11:47:55.673Z,967.08
2016-07-29T11:48:55.677Z,967.06
2016-07-29T11:49:55.680Z,967.05
2016-07-29T11:50:55.681Z,967.06
2016-07-29T11:51:55.685Z,967.09
2016-07-29T11:52:55.685Z,967.09
2016-07-29T11:53:55.690Z,967.09
2016-07-29T11:54:55.693Z,967.04
2016-07-29T11:55:55.693Z,967.02
2016-07-29T11:56:55.697Z,967.01
2016-07-29T11:57:55.696Z,967.04
2016-07-29T11:58:55.701Z,967.04
2016-07-29T11:59:55.701Z,967.01
2016-07-29T12:00:55.705Z,966.97
2016-07-29T12:01:55.710Z,966.99
2016-07-29T12:02:55.709Z,966.97
2016-07-29T12:03:55.714Z,966.95
2016-07-29T12:04:55.713Z,966.94
2016-07-29T12:05:55.718Z,966.83
2016-07-29T12:06:55.717Z,966.9
2016-07-29T12:07:55.721Z,966.86
2016-07-29T12:08:55.726Z,966.91
2016-07-29T12:09:55.725Z,966.88
2016-07-29T12:10:55.729Z,966.9
2016-07-29T12:11:55.729Z,966.89
2016-07-29T12:12:55.734Z,966.89
2016-07-29T12:13:55.737Z,966.88
2016-07-29T12:14:55.738Z,966.89
2016-07-29T12:15:55.742Z,966.96
2016-07-29T12:16:55.746Z,966.86
2016-07-29T12:17:55.747Z,966.86
2016-07-29T12:18:55.750Z,966.87
2016-07-29T12:19:55.749Z,966.88
2016-07-29T12:20:55.754Z,966.89
2016-07-29T12:21:55.754Z,966.84
2016-07-29T12:22:55.758Z,966.83
2016-07-29T12:23:55.762Z,966.89
2016-07-29T12:24:55.761Z,966.9
2016-07-29T12:25:55.766Z,966.86
2016-07-29T12:26:55.766Z,966.88
2016-07-29T12:27:55.770Z,966.86
2016-07-29T12:28:55.770Z,966.82
2016-07-29T12:29:55.774Z,966.82
2016-07-29T12:30:55.778Z,966.75
2016-07-29T12:31:55.779Z,966.79
2016-07-29T12:32:55.782Z,966.8
2016-07-29T12:33:55.782Z,966.83
2016-07-29T12:34:55.786Z,966.8
2016-07-29T12:35:55.786Z,966.78
2016-07-29T12:36:55.790Z,966.76
2016-07-29T12:37:55.794Z,966.76
2016-07-29T12:38:55.795Z,966.75
2016-07-29T12:39:55.798Z,966.75